Flugplatz Kempten-Durach

Für EDMK sind keine METAR/TAF Berichte vorhanden.
Es werden die Flugwettermeldungen vom Flugplatz Memmingen Allgau in 33 km Entfernung angezeigt.

Bericht für EDJA

vom 29.01. um 19:20 UTC

Wind 5 kt aus 240°

Sichtweite 10 km oder mehr

gering bewölkt in 1800 ft

Temperatur -6.0°C

Taupunkt -7.0°C

Luftfeuchtigkeit 93%

Luftdruck 1025 hPa

EDJA 291920Z 24005KT 9999 FEW018 M06/M07 Q1025

Prognose für EDJA

vom 29.01. um 17:00 UTC

Zwischen 18:00 UTC und 03:00 UTC

Wind 4 kt aus 290°

Sichtweite 10 km oder mehr

gering bewölkt in 1500 ft


Zwischen 18:00 und 20:00 UTC übergehend zu

Wind 7 kt aus 230°

Sichtweite 10 km oder mehr

gering bewölkt in 1500 ft

TAF EDJA 291700Z 2918/3003 29004KT 9999 FEW015 BECMG 2918/2920 23007KT
Impressum